Aérodrome :
LOGIN :

S'inscrire | Disclaimer

   EN    FR    IT 

 










Légende :    VFR   VFR Marginal   IFR   IFR Intensif   IFR Très Intensif
Visi : 
Plafond : 
>= 8 km
>= 3000ft
5 à 8 km
1000 à 3000 ft
1500m à 5 km
500 à 1000 ft
800 à 1500m
200 à 500 ft
< 800m
< 200 ft
Symboles :   Orages  Brouillard  Fortes neiges  Fortes précipitations  Vent > 20 kt
SIGMETs :   Divers  Orages  Givrage  Turbulence  Onde Orograph.  Cendres Volcan.






- Altitude de l'aérodrome : 218 ft
- Code IATA : LBG


LFPB - Paris / Le Bourget

DERNIER METAR :
  • 140030Z AUTO 15013KT 7000 -RA FEW023 BKN036 BKN042 06/04 Q0994 TEMPO 19015G25KT 4000 RA BKN006

METARs EXPIRÉS :
  • 140000Z AUTO 14015KT 9999 -RA FEW022 BKN043 BKN062 07/03 Q0995 TEMPO 19015G25KT 4000 RA BKN006
  • 132330Z AUTO 15014KT 9999 FEW021 BKN043 OVC090 07/03 Q0995 TEMPO 16015G25KT 4000 RA BKN006
  • 132300Z AUTO 15015KT 9999 FEW020 BKN045 OVC130 07/03 Q0995 BECMG BKN010
  • 132230Z AUTO 15011KT 9999 SCT019 BKN043 BKN150 06/03 Q0996 BECMG BKN010
  • 132200Z AUTO 16010KT 9999 FEW020 BKN052 OVC210 06/03 Q0997 BECMG BKN010

TAF TAF LFPB
Valide du 14 à 00h jusqu'au 15 à 00h UTC


132300Z 1400/1424 18010KT 9999 BKN040
TEMPO 1400/1403 19015G25KT 4000 RA BKN006
BECMG 1410/1412 BKN020
BECMG 1416/1418 08005KT
PROB40
TEMPO 1423/1424 3000 BR
ATIS : +33 1 48 62 43 92



MET'MAP, la Météo Aéronautique d'un coup d'oeil ! - Copyright ORBIFLY Décembre 2007 - Disclaimer

ORBIFLY MET'MAP TEAM :

Programmation & Développement : Alexandra Zaïnal
Conception & Développement : Baudouin d'Aumeries
Co-Programmation & Développement : Marc-Olivier Méhu
Soutien technique & logistique : Manuel Goepfert

Contact : metmap@orbifly.com




SOURCES & CREDITS :

   NOAA